Terminal Aerodrome Forecast
Issued by NWS

Home | Current Version | Previous Version | Text Only | Print | Product List | Glossary On
Versions: 1 2 3 4 5 6 7 8 9 10 11 12 13 14 15 16 17 18 19
000
FTUS41 KBOX 160532
TAFACK
TAF
KACK 160532Z 1606/1706 33010G18KT 2SM -SN OVC008
     FM160700 31015KT P6SM BKN025
     FM160800 30017KT P6SM BKN040
     FM160900 30019G26KT P6SM SCT250
     FM162000 28020G31KT P6SM BKN080
     FM170100 31016G24KT P6SM SCT060=

USA.gov is the U.S. government's official web portal to all federal, state and local government web resources and services.